Data for 10/30/2007

Time Sea-Level Adjusted Pressure Absolute Pressure Temperature Relative Humidity Dew Point   
(mb) (inHg) (mb) (inHg) (C) (F) (%) (C) (F)
00:05 1017 30.03 846 24.98 9.6 49.3 53 0.4 32.8
00:10 1017 30.03 846 24.98 9.9 49.8 56 1.6 34.9
00:15 1017 30.03 846 24.98 9.5 49 53 0.3 32.6
00:20 1017 30.03 846 24.98 10.1 50.1 51 0.5 32.9
00:25 1017 30.03 846 24.98 10 50.1 53 0.9 33.7
00:30 1017 30.03 846 24.98 9.9 49.7 53 0.9 33.5
00:35 1017 30.03 846 24.98 9.8 49.7 55 1.3 34.3
00:40 1017 30.03 846 24.98 9.7 49.5 54 0.9 33.6
00:45 1017 30.03 846 24.98 9.9 49.8 52 0.7 33.2
00:50 1017 30.03 846 24.98 9.9 49.8 55 1.4 34.6
00:55 1016 30 846 24.98 9.7 49.5 55 1.2 34.2
01:00 1016 30 846 24.98 9.5 49.2 55 1 33.9
01:05 1016 30 846 24.98 9.8 49.7 55 1.3 34.4
01:10 1016 30 846 24.98 9.9 49.9 54 1 33.9
01:15 1016 30 845 24.95 10.1 50.2 56 1.8 35.2
01:20 1016 30 845 24.95 9.9 49.8 54 1 33.8
01:25 1016 30 845 24.95 9.9 49.8 56 1.6 34.9
01:30 1016 30 845 24.95 9.6 49.3 59 2 35.6
01:35 1016 30 845 24.95 9.1 48.4 59 1.6 35
01:40 1016 30 845 24.95 9.1 48.3 59 1.4 34.6
01:45 1016 30 845 24.95 9.1 48.3 57 1.1 34
01:50 1016 30 845 24.95 9.2 48.6 57 1.3 34.3
01:55 1016 30 845 24.95 9.1 48.4 58 1.4 34.5
02:00 1016 30 845 24.95 9.1 48.3 59 1.4 34.6
02:05 1016 30 845 24.95 9 48.2 58 1.3 34.4
02:10 1016 30 845 24.95 9.1 48.5 57 1.1 33.9
02:15 1016 30 845 24.95 9.4 49 55 0.9 33.7
02:20 1016 30 845 24.95 9.6 49.4 53 0.6 33.2
02:25 1016 30 845 24.95 9.9 49.8 54 1.1 33.9
02:30 1016 30 845 24.95 9.7 49.5 54 0.9 33.6
02:35 1016 30 845 24.95 9.9 49.7 51 0.3 32.5
02:40 1016 30 845 24.95 10.2 50.4 52 0.8 33.5
02:45 1016 30 845 24.95 10.2 50.3 54 1.4 34.6
02:50 1016 30 845 24.95 9.9 49.8 53 0.9 33.6
02:55 1016 30 845 24.95 10.2 50.4 53 1.1 34
03:00 1016 30 845 24.95 10.3 50.5 53 1.3 34.3
03:05 1016 30 845 24.95 10.3 50.6 53 1.2 34.1
03:10 1016 30 845 24.95 10.3 50.5 54 1.4 34.5
03:15 1016 30 845 24.95 10.1 50.2 56 1.7 35.1
03:20 1016 30 845 24.95 10 49.9 55 1.3 34.4
03:25 1016 30 845 24.95 10.3 50.5 55 1.7 35
03:30 1016 30 845 24.95 10.4 50.8 60 3 37.4
03:35 1016 30 845 24.95 10 50.1 59 2.4 36.3
03:40 1016 30 845 24.95 10 50 61 3 37.3
03:45 1016 30 845 24.95 9.5 49.1 62 2.6 36.7
03:50 1016 30 845 24.95 9.3 48.7 68 3.7 38.6
03:55 1016 30 845 24.95 8.6 47.5 72 4 39.1
04:00 1016 30 845 24.95 8.1 46.6 77 4.3 39.8
04:05 1016 30 845 24.95 7.9 46.1 79 4.4 40
04:10 1016 30 845 24.95 7.8 46.1 79 4.4 40
04:15 1016 30 845 24.95 7.7 45.8 80 4.4 39.9
04:20 1016 30 845 24.95 7.7 45.9 76 3.8 38.9
04:25 1016 30 845 24.95 8.1 46.6 76 4.1 39.5
04:30 1016 30 845 24.95 8 46.4 80 4.7 40.5
04:35 1016 30 845 24.95 7.8 46 79 4.4 39.9
04:40 1016 30 845 24.95 8 46.4 77 4.3 39.8
04:45 1016 30 845 24.95 8.2 46.8 76 4.3 39.7
04:50 1016 30 845 24.95 8.5 47.3 75 4.4 39.9
04:55 1016 30 845 24.95 8.7 47.7 73 4.1 39.5
05:00 1016 30 845 24.95 9 48.1 73 4.5 40
05:05 1016 30 845 24.95 8.9 47.9 77 5 41
05:10 1016 30 845 24.95 8.6 47.4 79 5.1 41.2
05:15 1016 30 845 24.95 8.4 47.2 76 4.5 40.1
05:20 1016 30 845 24.95 8.6 47.4 78 4.9 40.8
05:25 1016 30 845 24.95 8.9 48 70 3.7 38.7
05:30 1016 30 845 24.95 9.7 49.5 71 4.7 40.5
05:35 1016 30 845 24.95 9.7 49.4 74 5.3 41.5
05:40 1016 30 845 24.95 9.4 48.9 75 5.2 41.4
05:45 1016 30 845 24.95 9.1 48.4 75 5 41.1
05:50 1016 30 845 24.95 9.1 48.4 75 4.9 40.8
05:55 1016 30 845 24.95 9.1 48.4 74 4.7 40.4
06:00 1016 30 845 24.95 9.2 48.5 73 4.7 40.5
06:05 1016 30 846 24.98 9.3 48.7 72 4.6 40.3
06:10 1017 30.03 846 24.98 9.2 48.6 71 4.3 39.7
06:15 1016 30 846 24.98 9.1 48.4 73 4.4 40
06:20 1016 30 846 24.98 8.9 48 74 4.5 40.1
06:25 1016 30 846 24.98 8.7 47.7 74 4.3 39.7
06:30 1017 30.03 846 24.98 8.6 47.4 75 4.4 39.9
06:35 1017 30.03 846 24.98 8.4 47.1 76 4.3 39.8
06:40 1017 30.03 846 24.98 8.2 46.8 79 4.8 40.6
06:45 1017 30.03 846 24.98 8 46.3 80 4.7 40.4
06:50 1017 30.03 846 24.98 7.6 45.6 83 4.9 40.8
06:55 1017 30.03 846 24.98 7.2 45 85 4.8 40.7
07:00 1017 30.03 846 24.98 7 44.6 87 5 41.1
07:05 1017 30.03 846 24.98 6.7 44 89 5.1 41.1
07:10 1017 30.03 846 24.98 6.5 43.8 91 5.2 41.4
07:15 1017 30.03 847 25.01 6.4 43.4 92 5.1 41.2
07:20 1017 30.03 847 25.01 6.4 43.4 92 5.1 41.2
07:25 1017 30.03 847 25.01 6.3 43.4 92 5.1 41.2
07:30 1018 30.06 847 25.01 6.3 43.4 92 5.1 41.2
07:35 1018 30.06 847 25.01 6.4 43.5 92 5.2 41.4
07:40 1018 30.06 847 25.01 6.4 43.4 92 5.2 41.3
07:45 1018 30.06 847 25.01 6.3 43.3 93 5.3 41.5
07:50 1018 30.06 847 25.01 6.3 43.3 93 5.3 41.5
07:55 1018 30.06 848 25.04 6.3 43.3 93 5.3 41.5
08:00 1019 30.09 848 25.04 6.2 43.1 93 5.1 41.1
08:05 1019 30.09 848 25.04 6 42.7 91 4.5 40.2
08:10 1019 30.09 848 25.04 5.6 42.1 89 4 39.2
08:15 1019 30.09 848 25.04 5.5 41.9 89 3.8 38.9
08:20 1019 30.09 848 25.04 5.3 41.6 87 3.3 37.9
08:25 1019 30.09 848 25.04 5.2 41.4 89 3.5 38.3
08:30 1019 30.09 848 25.04 5.1 41.1 89 3.4 38
08:35 1019 30.09 848 25.04 5.1 41.1 82 2.3 36.2
08:40 1019 30.09 849 25.07 5.2 41.4 85 2.9 37.3
08:45 1020 30.12 849 25.07 5.1 41.2 86 3 37.4
08:50 1020 30.12 849 25.07 5 41 85 2.7 36.9
08:55 1020 30.12 849 25.07 4.9 40.8 88 3 37.4
09:00 1020 30.12 849 25.07 5 41 86 2.9 37.2
09:05 1020 30.12 849 25.07 4.9 40.9 84 2.4 36.3
09:10 1020 30.12 850 25.1 4.2 39.6 88 2.4 36.4
09:15 1020 30.12 850 25.1 3.8 38.9 90 2.4 36.3
09:20 1021 30.15 850 25.1 3.6 38.4 92 2.4 36.3
09:25 1021 30.15 850 25.1 3.4 38 92 2.2 36
09:30 1021 30.15 850 25.1 3.1 37.7 92 2 35.5
09:35 1021 30.15 850 25.1 3 37.5 91 1.8 35.2
09:40 1021 30.15 850 25.1 3.1 37.6 92 2 35.5
09:45 1021 30.15 850 25.1 3.3 38 91 2 35.6
09:50 1021 30.15 850 25.1 3.4 38.2 89 1.8 35.2
09:55 1021 30.15 850 25.1 3.4 38.2 89 1.8 35.3
10:00 1021 30.15 850 25.1 3.4 38.1 89 1.7 35
10:05 1021 30.15 850 25.1 3.4 38.1 88 1.6 34.8
10:10 1021 30.15 850 25.1 3.4 38.1 88 1.6 34.8
10:15 1021 30.15 850 25.1 3.2 37.8 88 1.5 34.6
10:20 1021 30.15 850 25.1 3.1 37.5 90 1.6 34.9
10:25 1021 30.15 850 25.1 2.7 36.9 92 1.5 34.7
10:30 1021 30.15 851 25.13 2.4 36.3 93 1.3 34.3
10:35 1021 30.15 851 25.13 2 35.7 93 1.1 34
10:40 1021 30.15 851 25.13 1.9 35.4 93 0.9 33.6
10:45 1021 30.15 851 25.13 1.8 35.3 94 1 33.7
10:50 1021 30.15 851 25.13 1.9 35.4 94 1 33.8
10:55 1021 30.15 850 25.1 2.1 35.7 93 1.1 34
11:00 1021 30.15 850 25.1 2.2 36 93 1.1 34.1
11:05 1021 30.15 850 25.1 2.2 35.9 92 1 33.9
11:10 1021 30.15 850 25.1 2.1 35.9 94 1.3 34.3
11:15 1021 30.15 850 25.1 2.3 36.2 93 1.3 34.3
11:20 1021 30.15 850 25.1 2.8 37.1 89 1.2 34.2
11:25 1021 30.15 850 25.1 3.2 37.7 89 1.5 34.6
11:30 1021 30.15 850 25.1 3.3 38 85 1 33.8
11:35 1021 30.15 850 25.1 3.6 38.4 85 1.3 34.4
11:40 1021 30.15 850 25.1 3.7 38.6 84 1.2 34.1
11:45 1021 30.15 850 25.1 3.8 38.8 83 1.2 34.1
11:50 1021 30.15 850 25.1 3.8 38.8 83 1.1 34
11:55 1021 30.15 850 25.1 3.9 39.1 82 1.1 33.9
12:00 1021 30.15 850 25.1 4.1 39.4 80 0.9 33.6
12:05 1021 30.15 850 25.1 4.3 39.7 79 0.9 33.7
12:10 1021 30.15 850 25.1 4.4 40 78 1 33.7
12:15 1021 30.15 850 25.1 4.5 40.2 81 1.5 34.8
12:20 1021 30.15 850 25.1 4.6 40.3 79 1.4 34.5
12:25 1021 30.15 850 25.1 4.8 40.7 80 1.8 35.2
12:30 1021 30.15 850 25.1 5.2 41.4 78 1.6 34.9
12:35 1021 30.15 850 25.1 5 41 81 2.1 35.7
12:40 1021 30.15 850 25.1 4.9 40.9 85 2.6 36.7
12:45 1021 30.15 850 25.1 5 41.1 82 2.2 36
12:50 1021 30.15 850 25.1 5.2 41.3 80 2 35.6
12:55 1021 30.15 850 25.1 5.2 41.4 81 2.2 35.9
13:00 1021 30.15 850 25.1 5.2 41.4 81 2.2 35.9
13:05 1021 30.15 850 25.1 5.3 41.5 83 2.7 36.8
13:10 1021 30.15 850 25.1 5.3 41.6 82 2.4 36.4
13:15 1021 30.15 850 25.1 5.5 41.8 80 2.3 36.2
13:20 1021 30.15 850 25.1 5.5 41.8 83 2.9 37.2
13:25 1021 30.15 850 25.1 5.8 42.4 79 2.3 36.2
13:30 1021 30.15 850 25.1 5.7 42.3 77 2.1 35.7
13:35 1021 30.15 850 25.1 5.7 42.2 78 2.1 35.7
13:40 1021 30.15 851 25.13 5.6 42.2 79 2.2 36
13:45 1021 30.15 851 25.13 5.8 42.4 77 2.1 35.8
13:50 1021 30.15 851 25.13 6 42.8 74 1.7 35
13:55 1021 30.15 851 25.13 6.1 43 70 1.1 34
14:00 1021 30.15 851 25.13 6.1 43.1 71 1.2 34.2
14:05 1021 30.15 851 25.13 6.7 44.1 69 1.4 34.5
14:10 1021 30.15 851 25.13 7.5 45.5 64 1.2 34.2
14:15 1021 30.15 851 25.13 7.5 45.4 65 1.3 34.3
14:20 1021 30.15 851 25.13 7.7 45.8 63 1.1 33.9
14:25 1021 30.15 851 25.13 7.6 45.7 62 0.8 33.4
14:30 1021 30.15 851 25.13 7.7 45.9 61 0.6 33.1
14:35 1021 30.15 851 25.13 7.8 46.1 64 1.5 34.6
14:40 1021 30.15 851 25.13 7.6 45.6 62 0.8 33.5
14:45 1021 30.15 851 25.13 7.7 45.9 64 1.3 34.4
14:50 1021 30.15 851 25.13 8 46.4 59 0.5 33
14:55 1021 30.15 851 25.13 8.3 47 59 0.9 33.6
15:00 1021 30.15 851 25.13 8.7 47.6 57 0.7 33.3
15:05 1021 30.15 851 25.13 8.9 48 58 1.2 34.1
15:10 1021 30.15 851 25.13 8.2 46.8 59 0.6 33.1
15:15 1021 30.15 851 25.13 8.2 46.8 56 0.1 32.1
15:20 1021 30.15 851 25.13 9 48.2 52 -0.2 31.6
15:25 1022 30.18 851 25.13 8.7 47.7 57 0.7 33.2
15:30 1022 30.18 851 25.13 8.9 47.9 55 0.2 32.4
15:35 1022 30.18 851 25.13 9.4 48.9 53 0.3 32.6
15:40 1022 30.18 851 25.13 9.3 48.7 51 -0.3 31.5
15:45 1022 30.18 851 25.13 9.5 49 50 -0.5 31.2
15:50 1022 30.18 851 25.13 9.7 49.4 50 -0.2 31.7
15:55 1022 30.18 851 25.13 9.8 49.7 51 0.3 32.5
16:00 1022 30.18 851 25.13 9.6 49.2 48 -0.8 30.6
16:05 1022 30.18 851 25.13 10.2 50.4 47 -0.5 31.1
16:10 1022 30.18 851 25.13 9.3 48.7 53 0.3 32.5
16:15 1022 30.18 851 25.13 9.2 48.5 51 -0.4 31.2
16:20 1022 30.18 851 25.13 10.1 50.1 47 -0.6 31
16:25 1022 30.18 851 25.13 10.2 50.4 47 -0.5 31.1
16:30 1022 30.18 851 25.13 9.6 49.3 50 -0.4 31.3
16:35 1022 30.18 851 25.13 9.4 48.8 50 -0.6 30.9
16:40 1022 30.18 851 25.13 9.2 48.6 50 -0.5 31.1
16:45 1022 30.18 851 25.13 9.5 49.1 49 -0.5 31
16:50 1022 30.18 852 25.16 9.6 49.2 51 -0.1 31.8
16:55 1022 30.18 852 25.16 9.5 49.2 50 -0.4 31.2
17:00 1022 30.18 852 25.16 9.7 49.5 50 -0.3 31.5
17:05 1022 30.18 852 25.16 9.6 49.3 49 -0.4 31.2
17:10 1022 30.18 851 25.13 9.3 48.8 51 -0.1 31.8
17:15 1022 30.18 852 25.16 9.1 48.5 52 -0.3 31.5
17:20 1022 30.18 852 25.16 9.2 48.5 50 -0.7 30.7
17:25 1022 30.18 852 25.16 8.6 47.5 54 -0.2 31.6
17:30 1022 30.18 852 25.16 8 46.4 54 -0.6 30.9
17:35 1022 30.18 852 25.16 7.9 46.1 55 -0.6 30.9
17:40 1022 30.18 852 25.16 8.1 46.7 54 -0.6 31
17:45 1023 30.21 852 25.16 7.7 45.9 56 -0.5 31.1
17:50 1023 30.21 852 25.16 7.3 45.2 67 1.6 34.8
17:55 1023 30.21 852 25.16 6.8 44.3 66 1 33.8
18:00 1023 30.21 852 25.16 6.7 44.1 69 1.3 34.4
18:05 1023 30.21 852 25.16 6.3 43.4 72 1.7 35.1
18:10 1023 30.21 852 25.16 5.8 42.4 74 1.6 34.8
18:15 1023 30.21 852 25.16 5.5 41.8 76 1.6 34.9
18:20 1023 30.21 852 25.16 5.2 41.3 77 1.5 34.7
18:25 1023 30.21 852 25.16 4.8 40.6 79 1.4 34.6
18:30 1023 30.21 852 25.16 4.4 40 82 1.5 34.8
18:35 1023 30.21 852 25.16 4 39.3 83 1.5 34.6
18:40 1023 30.21 852 25.16 3.8 38.9 84 1.3 34.3
18:45 1023 30.21 852 25.16 3.7 38.7 84 1.3 34.3
18:50 1023 30.21 852 25.16 3.5 38.3 85 1.1 34.1
18:55 1023 30.21 852 25.16 3.4 38.1 85 1.1 33.9
19:00 1023 30.21 852 25.16 3.3 37.9 85 1.1 33.9
19:05 1023 30.21 852 25.16 3.1 37.6 86 1 33.8
19:10 1023 30.21 852 25.16 2.9 37.2 87 0.9 33.6
19:15 1023 30.21 852 25.16 2.7 36.9 86 0.6 33
19:20 1023 30.21 853 25.19 2.7 36.9 85 0.5 32.9
19:25 1023 30.21 853 25.19 2.5 36.5 86 0.3 32.6
19:30 1023 30.21 853 25.19 2.4 36.3 83 -0.2 31.7
19:35 1024 30.24 853 25.19 2.5 36.6 83 -0 31.9
19:40 1024 30.24 853 25.19 2.6 36.6 84 0.1 32.2
19:45 1024 30.24 853 25.19 2.5 36.5 84 0.1 32.1
19:50 1024 30.24 853 25.19 2.4 36.3 84 0 32
19:55 1024 30.24 853 25.19 2.2 36 84 -0.2 31.6
20:00 1024 30.24 853 25.19 2 35.6 85 -0.2 31.6
20:05 1024 30.24 853 25.19 2 35.6 84 -0.5 31.2
20:10 1024 30.24 853 25.19 2.1 35.7 84 -0.4 31.2
20:15 1024 30.24 853 25.19 2.1 35.8 85 -0.2 31.7
20:20 1024 30.24 853 25.19 1.9 35.5 86 -0.1 31.7
20:25 1024 30.24 853 25.19 1.8 35.2 86 -0.3 31.5
20:30 1024 30.24 853 25.19 1.7 35.1 88 -0.1 31.8
20:35 1024 30.24 853 25.19 1.6 34.9 88 -0.2 31.6
20:40 1024 30.24 853 25.19 1.6 34.9 88 -0.2 31.6
20:45 1024 30.24 853 25.19 1.7 35 86 -0.4 31.3
20:50 1024 30.24 853 25.19 2.1 35.8 84 -0.4 31.3
20:55 1024 30.24 853 25.19 1.9 35.4 85 -0.3 31.4
21:00 1024 30.24 854 25.22 1.4 34.5 88 -0.4 31.3
21:05 1024 30.24 854 25.22 1.3 34.3 87 -0.7 30.8
21:10 1024 30.24 854 25.22 1.5 34.7 86 -0.5 31.1
21:15 1024 30.24 854 25.22 1.3 34.3 88 -0.4 31.2
21:20 1024 30.24 854 25.22 1.2 34.2 88 -0.5 31.1
21:25 1024 30.24 854 25.22 1.8 35.2 84 -0.7 30.7
21:30 1024 30.24 854 25.22 1.9 35.4 85 -0.4 31.4
21:35 1024 30.24 854 25.22 1.6 34.9 86 -0.5 31
21:40 1024 30.24 854 25.22 1.7 35 85 -0.6 31
21:45 1025 30.27 854 25.22 1.5 34.6 86 -0.6 30.9
21:50 1025 30.27 854 25.22 1.2 34.1 87 -0.7 30.7
21:55 1025 30.27 854 25.22 1.2 34.1 87 -0.7 30.7
22:00 1025 30.27 854 25.22 1.2 34.2 87 -0.8 30.6
22:05 1025 30.27 854 25.22 1.1 34 87 -0.9 30.5
22:10 1025 30.27 854 25.22 1.1 34 86 -1 30.2
22:15 1025 30.27 854 25.22 1.1 34 86 -0.9 30.3
22:20 1025 30.27 854 25.22 1.1 34 87 -0.9 30.4
22:25 1025 30.27 854 25.22 1 33.7 88 -0.8 30.6
22:30 1025 30.27 854 25.22 0.9 33.6 88 -0.9 30.4
22:35 1025 30.27 854 25.22 0.9 33.7 86 -1.1 30.1
22:40 1025 30.27 854 25.22 0.9 33.6 86 -1.2 29.9
22:45 1025 30.27 854 25.22 1 33.8 85 -1.2 29.8
22:50 1025 30.27 854 25.22 1 33.8 85 -1.2 29.8
22:55 1025 30.27 854 25.22 1 33.8 85 -1.2 29.8
23:00 1025 30.27 855 25.25 1.2 34.1 83 -1.4 29.5
23:05 1025 30.27 855 25.25 1.4 34.5 84 -1 30.2
23:10 1025 30.27 855 25.25 1 33.9 86 -1 30.1
23:15 1025 30.27 855 25.25 0.8 33.4 87 -1.2 29.8
23:20 1026 30.3 855 25.25 0.8 33.5 86 -1.3 29.7
23:25 1026 30.3 855 25.25 0.8 33.4 87 -1.2 29.9
23:30 1026 30.3 855 25.25 0.5 33 87 -1.3 29.6
23:35 1026 30.3 855 25.25 0.6 33 87 -1.4 29.5
23:40 1026 30.3 855 25.25 0.6 33.1 87 -1.3 29.6
23:45 1026 30.3 855 25.25 0.5 32.8 87 -1.4 29.5
23:50 1026 30.3 855 25.25 0.6 33.1 85 -1.6 29.2
23:55 1026 30.3 855 25.25 0.7 33.3 85 -1.5 29.3
24:00 1026 30.3 855 25.25 0.7 33.2 86 -1.4 29.5